createdAt,value
2023-02-02T00:01:35.623Z,9.00
2023-02-02T00:04:03.500Z,9.00
2023-02-02T00:06:31.850Z,8.90
2023-02-02T00:09:01.606Z,8.90
2023-02-02T00:11:29.059Z,9.00
2023-02-02T00:13:56.352Z,9.00
2023-02-02T00:16:26.823Z,9.00
2023-02-02T00:18:59.730Z,9.00
2023-02-02T00:21:27.744Z,9.00
2023-02-02T00:23:55.303Z,8.90
2023-02-02T00:26:22.909Z,8.90
2023-02-02T00:28:50.176Z,8.90
2023-02-02T00:31:17.530Z,9.00
2023-02-02T00:33:46.500Z,8.90
2023-02-02T00:36:13.925Z,8.90
2023-02-02T00:38:41.348Z,8.90
2023-02-02T00:41:08.713Z,8.90
2023-02-02T00:43:35.958Z,8.90
2023-02-02T00:46:03.520Z,8.90
2023-02-02T00:48:31.215Z,8.90
2023-02-02T00:50:58.586Z,8.90
2023-02-02T00:53:25.791Z,9.00
2023-02-02T00:55:53.091Z,9.00
2023-02-02T00:58:20.340Z,9.00
2023-02-02T01:00:48.344Z,9.00
2023-02-02T01:03:16.198Z,9.00
2023-02-02T01:05:43.570Z,9.00
2023-02-02T01:08:10.893Z,9.00
2023-02-02T01:10:38.149Z,9.00
2023-02-02T01:13:05.373Z,9.00
2023-02-02T01:15:32.736Z,9.00
2023-02-02T01:18:00.034Z,9.10
2023-02-02T01:20:27.638Z,9.00
2023-02-02T01:22:57.240Z,9.00
2023-02-02T01:25:24.714Z,9.00
2023-02-02T01:27:52.215Z,9.00
2023-02-02T01:30:19.551Z,9.00
2023-02-02T01:32:46.867Z,9.00
2023-02-02T01:35:14.291Z,9.00
2023-02-02T01:37:41.574Z,9.00
2023-02-02T01:40:09.732Z,9.00
2023-02-02T01:42:36.989Z,9.00
2023-02-02T01:45:24.362Z,9.00
2023-02-02T01:47:58.404Z,9.00
2023-02-02T01:50:31.076Z,9.00
2023-02-02T01:53:00.551Z,9.00
2023-02-02T01:55:31.172Z,9.00
2023-02-02T01:58:08.231Z,9.00
2023-02-02T02:00:39.522Z,9.00
2023-02-02T02:03:11.451Z,9.00
2023-02-02T02:05:47.791Z,8.90
2023-02-02T02:08:31.093Z,8.80
2023-02-02T02:10:58.724Z,8.70
2023-02-02T02:13:48.320Z,8.70
2023-02-02T02:16:42.069Z,8.70
2023-02-02T02:19:15.508Z,8.70
2023-02-02T02:22:23.079Z,8.80
2023-02-02T02:25:38.776Z,8.80
2023-02-02T02:28:06.324Z,8.90
2023-02-02T02:30:47.182Z,8.90
2023-02-02T02:33:41.287Z,8.80
2023-02-02T02:36:11.853Z,8.80
2023-02-02T02:38:52.223Z,8.80
2023-02-02T02:41:28.854Z,8.80
2023-02-02T02:44:01.523Z,8.90
2023-02-02T02:46:29.129Z,8.90
2023-02-02T02:48:59.123Z,8.90
2023-02-02T02:51:52.336Z,8.90
2023-02-02T02:54:28.870Z,8.90
2023-02-02T02:57:24.119Z,8.90
2023-02-02T03:00:17.400Z,8.80
2023-02-02T03:03:06.611Z,8.90
2023-02-02T03:05:51.360Z,8.90
2023-02-02T03:08:31.368Z,8.90
2023-02-02T03:11:02.242Z,8.90
2023-02-02T03:13:30.601Z,8.90
2023-02-02T03:15:58.307Z,8.90
2023-02-02T03:18:28.624Z,8.90
2023-02-02T03:20:56.333Z,8.90
2023-02-02T03:23:23.807Z,8.90
2023-02-02T03:25:51.301Z,8.90
2023-02-02T03:28:18.986Z,8.90
2023-02-02T03:30:50.368Z,8.80
2023-02-02T03:33:18.698Z,8.80
2023-02-02T03:35:46.291Z,8.80
2023-02-02T03:38:13.707Z,8.80
2023-02-02T03:40:41.278Z,8.80
2023-02-02T03:43:08.709Z,8.80
2023-02-02T03:45:36.022Z,8.90
2023-02-02T03:48:06.916Z,8.90
2023-02-02T03:50:34.383Z,8.80
2023-02-02T03:53:01.735Z,8.80
2023-02-02T03:55:29.071Z,8.80
2023-02-02T03:57:56.334Z,8.80
2023-02-02T04:00:23.917Z,8.80
2023-02-02T04:02:51.297Z,8.80
2023-02-02T04:05:18.544Z,8.90
2023-02-02T04:07:45.711Z,8.80
2023-02-02T04:10:13.038Z,8.80
2023-02-02T04:12:40.350Z,8.80
2023-02-02T04:15:08.172Z,8.80
2023-02-02T04:17:35.697Z,8.80
2023-02-02T04:20:04.828Z,8.80
2023-02-02T04:22:33.268Z,8.80
2023-02-02T04:25:00.499Z,8.90
2023-02-02T04:27:27.755Z,8.90
2023-02-02T04:29:55.025Z,8.90
2023-02-02T04:32:22.249Z,8.90
2023-02-02T04:34:49.557Z,8.80
2023-02-02T04:37:16.837Z,8.90
2023-02-02T04:39:44.094Z,8.90
2023-02-02T04:42:11.303Z,8.80
2023-02-02T04:44:38.477Z,8.80
2023-02-02T04:47:05.698Z,8.90
2023-02-02T04:49:33.061Z,8.90
2023-02-02T04:52:01.791Z,8.90
2023-02-02T04:54:29.164Z,8.90
2023-02-02T04:56:56.467Z,8.90
2023-02-02T04:59:23.859Z,8.90
2023-02-02T05:01:51.157Z,8.90
2023-02-02T05:04:18.653Z,8.90
2023-02-02T05:06:46.078Z,8.80
2023-02-02T05:09:14.980Z,8.80
2023-02-02T05:11:44.493Z,8.80
2023-02-02T05:14:11.774Z,8.80
2023-02-02T05:16:39.665Z,8.80
2023-02-02T05:19:06.903Z,8.80
2023-02-02T05:21:34.148Z,8.80
2023-02-02T05:24:02.708Z,8.80
2023-02-02T05:26:30.083Z,8.80
2023-02-02T05:28:57.592Z,8.80
2023-02-02T05:31:24.927Z,8.80
2023-02-02T05:33:52.151Z,8.80
2023-02-02T05:36:19.393Z,8.80
2023-02-02T05:38:46.746Z,8.80
2023-02-02T05:41:14.338Z,8.80
2023-02-02T05:43:41.670Z,8.80
2023-02-02T05:46:08.981Z,8.80
2023-02-02T05:48:36.289Z,8.80
2023-02-02T05:51:05.890Z,8.80
2023-02-02T05:53:33.294Z,8.80
2023-02-02T05:56:00.937Z,8.80
2023-02-02T05:58:28.461Z,8.70
2023-02-02T06:00:56.865Z,8.70
2023-02-02T06:03:24.282Z,8.70
2023-02-02T06:05:51.770Z,8.70
2023-02-02T06:08:19.135Z,8.70
2023-02-02T06:10:46.583Z,8.70
2023-02-02T06:13:13.887Z,8.70
2023-02-02T06:15:43.111Z,8.70
2023-02-02T06:18:10.809Z,8.70
2023-02-02T06:20:38.168Z,8.70
2023-02-02T06:23:06.083Z,8.60
2023-02-02T06:25:34.380Z,8.60
2023-02-02T06:28:01.600Z,8.60
2023-02-02T06:30:29.005Z,8.70
2023-02-02T06:32:58.823Z,8.70
2023-02-02T06:35:26.430Z,8.70
2023-02-02T06:37:54.048Z,8.60
2023-02-02T06:40:21.368Z,8.70
2023-02-02T06:42:48.717Z,8.70
2023-02-02T06:45:16.204Z,8.70
2023-02-02T06:47:43.514Z,8.70
2023-02-02T06:50:11.290Z,8.80
2023-02-02T06:52:38.590Z,8.70
2023-02-02T06:55:06.315Z,8.70
2023-02-02T06:57:33.564Z,8.70
2023-02-02T07:00:00.877Z,8.70
2023-02-02T07:02:28.228Z,8.70
2023-02-02T07:04:57.200Z,8.70
2023-02-02T07:07:24.452Z,8.80
2023-02-02T07:09:58.133Z,8.80
2023-02-02T07:12:27.101Z,8.70
2023-02-02T07:14:54.531Z,8.80
2023-02-02T07:17:21.900Z,8.80
2023-02-02T07:19:49.291Z,8.80
2023-02-02T07:22:16.628Z,8.80
2023-02-02T07:24:43.827Z,8.70
2023-02-02T07:27:11.143Z,8.70
2023-02-02T07:29:38.411Z,8.80
2023-02-02T07:32:05.935Z,8.70
2023-02-02T07:34:33.302Z,8.80
2023-02-02T07:37:00.588Z,8.80
2023-02-02T07:39:27.923Z,8.80
2023-02-02T07:41:55.188Z,8.80
2023-02-02T07:44:30.873Z,8.80
2023-02-02T07:46:58.133Z,8.80
2023-02-02T07:49:25.430Z,8.90
2023-02-02T07:51:52.942Z,8.90
2023-02-02T07:54:20.216Z,8.90
2023-02-02T07:56:47.488Z,8.90
2023-02-02T07:59:14.751Z,8.80
2023-02-02T08:01:42.302Z,8.80
2023-02-02T08:04:09.718Z,8.90
2023-02-02T08:06:39.221Z,8.90
2023-02-02T08:09:08.841Z,8.80
2023-02-02T08:11:38.014Z,8.90
2023-02-02T08:14:06.070Z,8.80
2023-02-02T08:16:34.116Z,8.90
2023-02-02T08:19:01.735Z,8.90
2023-02-02T08:21:28.992Z,8.90
2023-02-02T08:23:56.853Z,8.90
2023-02-02T08:26:26.666Z,8.90
2023-02-02T08:28:56.579Z,8.90
2023-02-02T08:31:45.571Z,8.80
2023-02-02T08:34:14.094Z,8.80
2023-02-02T08:36:42.076Z,8.90
2023-02-02T08:39:12.395Z,8.90
2023-02-02T08:41:39.710Z,8.90
2023-02-02T08:44:11.307Z,8.90
2023-02-02T08:46:38.927Z,8.90
2023-02-02T08:49:06.507Z,8.90
2023-02-02T08:51:33.837Z,8.80
2023-02-02T08:54:01.160Z,8.90
2023-02-02T08:56:28.420Z,8.90
2023-02-02T08:59:02.980Z,8.90
2023-02-02T09:01:33.044Z,8.90
2023-02-02T09:04:05.900Z,8.90
2023-02-02T09:06:43.855Z,8.90
2023-02-02T09:09:14.856Z,8.90
2023-02-02T09:11:43.160Z,8.90
2023-02-02T09:14:13.536Z,8.90
2023-02-02T09:16:41.534Z,8.90
2023-02-02T09:19:11.169Z,8.90
2023-02-02T09:21:38.656Z,8.90
2023-02-02T09:24:13.916Z,9.00
2023-02-02T09:26:42.576Z,9.00
2023-02-02T09:29:15.715Z,9.00
2023-02-02T09:31:43.447Z,9.00
2023-02-02T09:34:13.178Z,9.00
2023-02-02T09:36:41.837Z,9.00
2023-02-02T09:39:12.659Z,9.10
2023-02-02T09:41:40.563Z,9.10
2023-02-02T09:44:19.824Z,9.10
2023-02-02T09:46:55.976Z,9.10
2023-02-02T09:49:32.332Z,9.10
2023-02-02T09:52:05.045Z,9.10
2023-02-02T09:54:47.293Z,9.10
2023-02-02T09:57:23.739Z,9.10
2023-02-02T09:59:54.020Z,9.10
2023-02-02T10:02:32.704Z,9.10
2023-02-02T10:05:13.385Z,9.00
2023-02-02T10:07:45.899Z,9.00
2023-02-02T10:10:22.361Z,9.00
2023-02-02T10:12:55.996Z,9.00
2023-02-02T10:15:44.053Z,9.00
2023-02-02T10:18:35.610Z,9.00
2023-02-02T10:21:07.125Z,9.00
2023-02-02T10:23:40.786Z,9.00
2023-02-02T10:26:22.826Z,9.00
2023-02-02T10:29:02.070Z,9.00
2023-02-02T10:31:50.475Z,9.00
2023-02-02T10:35:00.323Z,9.00
2023-02-02T10:37:54.270Z,9.00
2023-02-02T10:40:39.184Z,9.00
2023-02-02T10:43:46.658Z,9.00
2023-02-02T10:46:28.848Z,9.00
2023-02-02T10:49:27.910Z,9.00
2023-02-02T10:52:15.141Z,9.10
2023-02-02T10:55:00.980Z,9.00
2023-02-02T10:57:39.207Z,9.10
2023-02-02T11:00:13.305Z,9.10
2023-02-02T11:02:40.553Z,9.00
2023-02-02T11:05:42.461Z,9.10
2023-02-02T11:08:15.648Z,9.10
2023-02-02T11:10:45.303Z,9.10
2023-02-02T11:13:19.289Z,9.10
2023-02-02T11:15:47.804Z,9.20
2023-02-02T11:18:28.375Z,9.20
2023-02-02T11:20:56.500Z,9.20
2023-02-02T11:23:27.615Z,9.20
2023-02-02T11:26:00.803Z,9.20
2023-02-02T11:28:34.245Z,9.20
2023-02-02T11:31:02.331Z,9.30
2023-02-02T11:33:34.856Z,9.30
2023-02-02T11:36:21.867Z,9.40
2023-02-02T11:38:49.178Z,9.40
2023-02-02T11:41:17.180Z,9.40
2023-02-02T11:43:54.151Z,9.40
2023-02-02T11:46:28.910Z,9.40
2023-02-02T11:49:01.726Z,9.50
2023-02-02T11:51:30.859Z,9.50
2023-02-02T11:54:12.239Z,9.50
2023-02-02T11:56:39.944Z,9.50
2023-02-02T11:59:30.580Z,9.50
2023-02-02T12:02:13.549Z,9.50
2023-02-02T12:04:41.232Z,9.60
2023-02-02T12:07:28.261Z,9.60
2023-02-02T12:10:11.843Z,9.60
2023-02-02T12:12:52.661Z,9.60
2023-02-02T12:15:38.495Z,9.60
2023-02-02T12:18:43.587Z,9.70
2023-02-02T12:21:43.510Z,9.70
2023-02-02T12:24:56.678Z,9.80
2023-02-02T12:28:10.513Z,9.80
2023-02-02T12:30:56.780Z,9.80
2023-02-02T12:33:54.068Z,9.80
2023-02-02T12:36:38.538Z,9.80
2023-02-02T12:39:20.906Z,9.90
2023-02-02T12:42:12.443Z,9.90
2023-02-02T12:45:10.746Z,10.00
2023-02-02T12:47:47.109Z,9.90
2023-02-02T12:50:14.359Z,9.90
2023-02-02T12:52:50.240Z,10.00
2023-02-02T12:55:39.323Z,10.10
2023-02-02T12:58:13.818Z,10.20
2023-02-02T13:00:56.178Z,10.30
2023-02-02T13:04:01.540Z,10.30
2023-02-02T13:06:47.896Z,10.40
2023-02-02T13:09:26.132Z,10.40
2023-02-02T13:12:07.106Z,10.50
2023-02-02T13:14:45.046Z,10.50
2023-02-02T13:17:18.529Z,10.50
2023-02-02T13:19:51.613Z,10.50
2023-02-02T13:22:32.146Z,10.60
2023-02-02T13:25:02.197Z,10.60
2023-02-02T13:27:31.000Z,10.50
2023-02-02T13:30:13.759Z,10.60
2023-02-02T13:32:45.177Z,10.50
2023-02-02T13:36:00.126Z,10.50
2023-02-02T13:38:34.826Z,10.50
2023-02-02T13:41:06.617Z,10.50
2023-02-02T13:43:55.381Z,10.60
2023-02-02T13:46:46.978Z,10.60
2023-02-02T13:49:29.262Z,10.60
2023-02-02T13:52:31.590Z,10.60
2023-02-02T13:55:46.292Z,10.60
2023-02-02T13:58:42.930Z,10.60
2023-02-02T14:01:12.684Z,10.60
2023-02-02T14:04:05.472Z,10.60
2023-02-02T14:09:37.659Z,10.60
2023-02-02T14:12:10.904Z,10.60
2023-02-02T14:14:45.602Z,10.60
2023-02-02T14:17:19.328Z,10.50
2023-02-02T14:19:53.988Z,10.60
2023-02-02T14:22:50.873Z,10.60
2023-02-02T14:26:04.191Z,10.60
2023-02-02T14:28:44.567Z,10.50
2023-02-02T14:31:43.242Z,10.50
2023-02-02T14:34:36.793Z,10.60
2023-02-02T14:37:12.832Z,10.60
2023-02-02T14:40:06.442Z,10.60
2023-02-02T14:43:14.103Z,10.60
2023-02-02T14:45:42.980Z,10.60
2023-02-02T14:48:18.696Z,10.60
2023-02-02T14:50:54.716Z,10.60
2023-02-02T14:53:40.009Z,10.60
2023-02-02T14:56:11.027Z,10.60
2023-02-02T14:58:43.138Z,10.60
2023-02-02T15:01:26.036Z,10.60
2023-02-02T15:04:17.078Z,10.70
2023-02-02T15:06:44.314Z,10.70
2023-02-02T15:09:20.592Z,10.70
2023-02-02T15:12:02.997Z,10.70
2023-02-02T15:14:45.850Z,10.70
2023-02-02T15:18:01.158Z,10.70
2023-02-02T15:20:40.244Z,10.70
2023-02-02T15:23:22.441Z,10.70
2023-02-02T15:26:10.991Z,10.70
2023-02-02T15:28:44.410Z,10.70
2023-02-02T15:31:11.712Z,10.70
2023-02-02T15:33:46.979Z,10.80
2023-02-02T15:36:23.651Z,10.80
2023-02-02T15:38:58.460Z,10.70
2023-02-02T15:41:32.971Z,10.70
2023-02-02T15:44:01.138Z,10.70
2023-02-02T15:46:35.700Z,10.70
2023-02-02T15:49:34.276Z,10.70
2023-02-02T15:52:22.469Z,10.70
2023-02-02T15:54:51.668Z,10.70
2023-02-02T15:57:37.989Z,10.70
2023-02-02T16:00:24.327Z,10.70
2023-02-02T16:02:57.798Z,10.70
2023-02-02T16:05:37.290Z,10.70
2023-02-02T16:08:13.963Z,10.70
2023-02-02T16:10:41.403Z,10.70
2023-02-02T16:13:21.340Z,10.70
2023-02-02T16:15:55.998Z,10.70
2023-02-02T16:18:23.422Z,10.70
2023-02-02T16:20:52.607Z,10.70
2023-02-02T16:23:30.451Z,10.70
2023-02-02T16:26:00.520Z,10.70
2023-02-02T16:28:28.502Z,10.70
2023-02-02T16:30:59.902Z,10.70
2023-02-02T16:33:27.162Z,10.70
2023-02-02T16:35:54.814Z,10.60
2023-02-02T16:38:39.540Z,10.60
2023-02-02T16:41:12.834Z,10.60
2023-02-02T16:43:42.170Z,10.60
2023-02-02T16:46:12.976Z,10.60
2023-02-02T16:48:46.248Z,10.60
2023-02-02T16:51:16.595Z,10.60
2023-02-02T16:53:46.527Z,10.60
2023-02-02T16:56:32.660Z,10.60
2023-02-02T16:59:26.014Z,10.60
2023-02-02T17:01:59.715Z,10.60
2023-02-02T17:04:29.903Z,10.60
2023-02-02T17:07:05.995Z,10.60
2023-02-02T17:09:37.519Z,10.60
2023-02-02T17:12:32.186Z,10.60
2023-02-02T17:15:20.440Z,10.60
2023-02-02T17:17:49.201Z,10.60
2023-02-02T17:20:18.362Z,10.60
2023-02-02T17:22:48.476Z,10.50
2023-02-02T17:25:18.674Z,10.60
2023-02-02T17:27:46.456Z,10.60
2023-02-02T17:30:18.704Z,10.50
2023-02-02T17:32:46.103Z,10.50
2023-02-02T17:35:22.828Z,10.50
2023-02-02T17:37:52.738Z,10.50
2023-02-02T17:40:22.737Z,10.50
2023-02-02T17:42:53.281Z,10.50
2023-02-02T17:45:29.540Z,10.50
2023-02-02T17:47:56.922Z,10.50
2023-02-02T17:50:25.554Z,10.50
2023-02-02T17:52:53.076Z,10.50
2023-02-02T17:55:25.783Z,10.40
2023-02-02T17:57:54.339Z,10.40
2023-02-02T18:00:24.358Z,10.40
2023-02-02T18:03:10.035Z,10.40
2023-02-02T18:05:43.201Z,10.40
2023-02-02T18:08:14.454Z,10.40
2023-02-02T18:10:43.063Z,10.30
2023-02-02T18:13:21.097Z,10.30
2023-02-02T18:15:49.880Z,10.30
2023-02-02T18:18:17.089Z,10.30
2023-02-02T18:20:46.512Z,10.20
2023-02-02T18:23:14.828Z,10.20
2023-02-02T18:25:42.388Z,10.20
2023-02-02T18:28:10.768Z,10.20
2023-02-02T18:30:39.726Z,10.20
2023-02-02T18:33:11.230Z,10.20
2023-02-02T18:35:45.795Z,10.20
2023-02-02T18:38:14.529Z,10.20
2023-02-02T18:40:42.023Z,10.20
2023-02-02T18:43:09.611Z,10.20
2023-02-02T18:45:37.002Z,10.20
2023-02-02T18:48:04.367Z,10.10
2023-02-02T18:50:31.720Z,10.10
2023-02-02T18:52:59.012Z,10.10
2023-02-02T18:55:26.792Z,10.10
2023-02-02T18:57:54.280Z,10.10
2023-02-02T19:00:22.137Z,10.10
2023-02-02T19:02:49.564Z,10.10
2023-02-02T19:05:35.279Z,10.10
2023-02-02T19:08:03.910Z,10.10
2023-02-02T19:10:31.343Z,10.10
2023-02-02T19:13:18.011Z,10.10
2023-02-02T19:15:47.817Z,10.10
2023-02-02T19:18:20.718Z,10.10
2023-02-02T19:20:48.713Z,10.10
2023-02-02T19:23:24.044Z,10.10
2023-02-02T19:25:56.087Z,10.10
2023-02-02T19:28:28.270Z,10.10
2023-02-02T19:30:58.529Z,10.10
2023-02-02T19:33:47.620Z,10.10
2023-02-02T19:36:27.682Z,10.10
2023-02-02T19:39:18.356Z,10.10
2023-02-02T19:41:45.684Z,10.10
2023-02-02T19:44:21.066Z,10.00
2023-02-02T19:46:50.950Z,10.00
2023-02-02T19:49:30.723Z,10.10
2023-02-02T19:51:58.937Z,10.00
2023-02-02T19:54:35.046Z,10.10
2023-02-02T19:57:15.357Z,10.10
2023-02-02T19:59:45.694Z,10.10
2023-02-02T20:02:43.902Z,10.10
2023-02-02T20:05:11.283Z,10.10
2023-02-02T20:07:39.289Z,10.10
2023-02-02T20:10:21.257Z,10.10
2023-02-02T20:12:50.292Z,10.10
2023-02-02T20:15:27.495Z,10.20
2023-02-02T20:17:58.316Z,10.20
2023-02-02T20:20:39.513Z,10.20
2023-02-02T20:23:21.985Z,10.20
2023-02-02T20:25:49.328Z,10.20
2023-02-02T20:28:44.656Z,10.20
2023-02-02T20:31:24.326Z,10.10
2023-02-02T20:33:54.879Z,10.10
2023-02-02T20:36:39.087Z,10.10
2023-02-02T20:39:15.281Z,10.10
2023-02-02T20:41:43.920Z,10.10
2023-02-02T20:44:11.688Z,10.10
2023-02-02T20:46:39.152Z,10.00
2023-02-02T20:49:07.132Z,10.00
2023-02-02T20:51:34.542Z,10.00
2023-02-02T20:54:02.062Z,10.00
2023-02-02T20:56:29.307Z,10.00
2023-02-02T20:58:56.532Z,10.00
2023-02-02T21:01:25.260Z,10.00
2023-02-02T21:03:52.598Z,10.00
2023-02-02T21:06:19.915Z,10.00
2023-02-02T21:08:51.474Z,10.00
2023-02-02T21:11:19.802Z,10.00
2023-02-02T21:13:47.113Z,10.10
2023-02-02T21:16:14.305Z,10.00
2023-02-02T21:18:41.739Z,10.00
2023-02-02T21:21:09.010Z,10.10
2023-02-02T21:23:36.533Z,10.10
2023-02-02T21:26:04.019Z,10.10
2023-02-02T21:28:31.255Z,10.00
2023-02-02T21:30:58.586Z,10.10
2023-02-02T21:33:25.853Z,10.10
2023-02-02T21:35:53.636Z,10.10
2023-02-02T21:38:20.875Z,10.10
2023-02-02T21:40:49.927Z,10.10
2023-02-02T21:43:18.956Z,10.10
2023-02-02T21:45:53.287Z,10.20
2023-02-02T21:48:27.282Z,10.20
2023-02-02T21:50:54.570Z,10.10
2023-02-02T21:53:24.122Z,10.10
2023-02-02T21:55:56.784Z,10.10
2023-02-02T21:58:32.469Z,10.10
2023-02-02T22:01:20.413Z,10.20
2023-02-02T22:03:49.834Z,10.20
2023-02-02T22:06:34.722Z,10.20
2023-02-02T22:09:11.271Z,10.20
2023-02-02T22:11:50.674Z,10.20
2023-02-02T22:14:21.682Z,10.20
2023-02-02T22:16:56.624Z,10.20
2023-02-02T22:19:31.212Z,10.20
2023-02-02T22:22:09.666Z,10.20
2023-02-02T22:24:37.027Z,10.20
2023-02-02T22:27:08.750Z,10.20
2023-02-02T22:29:36.053Z,10.20
2023-02-02T22:32:03.289Z,10.20
2023-02-02T22:34:30.516Z,10.20
2023-02-02T22:36:57.744Z,10.20
2023-02-02T22:39:24.948Z,10.20
2023-02-02T22:41:52.246Z,10.20
2023-02-02T22:44:19.500Z,10.20
2023-02-02T22:46:46.890Z,10.20
2023-02-02T22:49:14.154Z,10.20
2023-02-02T22:51:41.390Z,10.30
2023-02-02T22:54:08.673Z,10.30
2023-02-02T22:56:35.931Z,10.30
2023-02-02T22:59:03.556Z,10.30
2023-02-02T23:01:30.798Z,10.30
2023-02-02T23:03:58.104Z,10.30
2023-02-02T23:06:25.361Z,10.30
2023-02-02T23:08:52.616Z,10.20
2023-02-02T23:11:19.858Z,10.20
2023-02-02T23:13:47.162Z,10.30
2023-02-02T23:16:14.557Z,10.30
2023-02-02T23:18:41.944Z,10.30
2023-02-02T23:21:09.211Z,10.30
2023-02-02T23:23:36.429Z,10.30
2023-02-02T23:26:03.701Z,10.30
2023-02-02T23:28:31.057Z,10.30
2023-02-02T23:30:59.227Z,10.30
2023-02-02T23:33:27.002Z,10.30
2023-02-02T23:35:54.303Z,10.30
2023-02-02T23:38:21.512Z,10.30
2023-02-02T23:40:48.854Z,10.30
2023-02-02T23:43:16.105Z,10.30
2023-02-02T23:45:43.384Z,10.20
2023-02-02T23:48:11.092Z,10.20
2023-02-02T23:50:38.951Z,10.30
2023-02-02T23:53:08.119Z,10.30
2023-02-02T23:55:35.853Z,10.30
2023-02-02T23:58:03.375Z,10.30
